Terminal Aerodrome Forecast
Issued by NWS Hastings, NE

Home | Current Version | Previous Version | Text Only | Print | Product List | Glossary On
Versions: 1 2 3 4 5 6 7 8 9 10 11 12 13 14 15 16 17 18 19
000
FTUS43 KGID 251720
TAFGRI
TAF
KGRI 251720Z 2518/2618 32021G30KT P6SM FEW045
     FM260000 32014G21KT P6SM SKC
     FM260200 31009KT P6SM SKC
     FM261100 28008KT P6SM SKC
     FM261600 30012KT P6SM SKC=

USA.gov is the U.S. government's official web portal to all federal, state and local government web resources and services.